sensor_id;sensor_type;location;lat;lon;timestamp;P1;durP1;ratioP1;P2;durP2;ratioP2
1010;SDS011;494;48.744;10.106;2022-07-29T00:00:04;25.60;;;17.63;;
1010;SDS011;494;48.744;10.106;2022-07-29T00:02:36;27.07;;;18.43;;
1010;SDS011;494;48.744;10.106;2022-07-29T00:05:05;26.97;;;17.43;;
1010;SDS011;494;48.744;10.106;2022-07-29T00:07:36;25.40;;;18.33;;
1010;SDS011;494;48.744;10.106;2022-07-29T00:10:04;25.43;;;18.67;;
1010;SDS011;494;48.744;10.106;2022-07-29T00:12:33;27.30;;;18.73;;
1010;SDS011;494;48.744;10.106;2022-07-29T00:15:03;27.40;;;18.83;;
1010;SDS011;494;48.744;10.106;2022-07-29T00:17:35;24.00;;;17.33;;
1010;SDS011;494;48.744;10.106;2022-07-29T00:20:04;24.80;;;17.33;;
1010;SDS011;494;48.744;10.106;2022-07-29T00:22:36;25.40;;;18.47;;
1010;SDS011;494;48.744;10.106;2022-07-29T00:25:06;24.53;;;17.63;;
1010;SDS011;494;48.744;10.106;2022-07-29T00:27:35;24.50;;;17.87;;
1010;SDS011;494;48.744;10.106;2022-07-29T00:30:05;24.20;;;17.13;;
1010;SDS011;494;48.744;10.106;2022-07-29T00:32:36;28.13;;;18.77;;
1010;SDS011;494;48.744;10.106;2022-07-29T00:35:05;23.63;;;16.33;;
1010;SDS011;494;48.744;10.106;2022-07-29T00:37:52;22.60;;;16.70;;
1010;SDS011;494;48.744;10.106;2022-07-29T00:40:21;24.47;;;17.40;;
1010;SDS011;494;48.744;10.106;2022-07-29T00:42:52;26.17;;;18.30;;
1010;SDS011;494;48.744;10.106;2022-07-29T00:45:21;21.60;;;16.20;;
1010;SDS011;494;48.744;10.106;2022-07-29T00:47:51;23.97;;;15.97;;
1010;SDS011;494;48.744;10.106;2022-07-29T00:50:19;24.47;;;17.80;;
1010;SDS011;494;48.744;10.106;2022-07-29T00:52:48;24.10;;;17.27;;
1010;SDS011;494;48.744;10.106;2022-07-29T00:55:18;23.37;;;17.30;;
1010;SDS011;494;48.744;10.106;2022-07-29T00:57:48;23.63;;;16.63;;
1010;SDS011;494;48.744;10.106;2022-07-29T01:00:19;25.07;;;16.70;;
1010;SDS011;494;48.744;10.106;2022-07-29T01:02:51;21.10;;;15.87;;
1010;SDS011;494;48.744;10.106;2022-07-29T01:05:21;21.50;;;15.43;;
1010;SDS011;494;48.744;10.106;2022-07-29T01:08:12;23.10;;;15.77;;
1010;SDS011;494;48.744;10.106;2022-07-29T01:10:43;21.17;;;14.70;;
1010;SDS011;494;48.744;10.106;2022-07-29T01:13:14;21.97;;;15.17;;
1010;SDS011;494;48.744;10.106;2022-07-29T01:15:44;20.90;;;14.30;;
1010;SDS011;494;48.744;10.106;2022-07-29T01:18:22;19.80;;;14.03;;
1010;SDS011;494;48.744;10.106;2022-07-29T01:21:15;25.47;;;14.40;;
1010;SDS011;494;48.744;10.106;2022-07-29T01:24:14;21.27;;;13.33;;
1010;SDS011;494;48.744;10.106;2022-07-29T01:27:11;20.70;;;14.60;;
1010;SDS011;494;48.744;10.106;2022-07-29T01:30:08;20.83;;;14.30;;
1010;SDS011;494;48.744;10.106;2022-07-29T01:32:40;19.60;;;13.63;;
1010;SDS011;494;48.744;10.106;2022-07-29T01:35:15;26.70;;;13.00;;
1010;SDS011;494;48.744;10.106;2022-07-29T01:37:52;22.10;;;13.93;;
1010;SDS011;494;48.744;10.106;2022-07-29T01:40:31;19.67;;;13.53;;
1010;SDS011;494;48.744;10.106;2022-07-29T01:43:10;19.90;;;14.00;;
1010;SDS011;494;48.744;10.106;2022-07-29T01:45:46;20.47;;;13.33;;
1010;SDS011;494;48.744;10.106;2022-07-29T01:48:38;19.90;;;13.87;;
1010;SDS011;494;48.744;10.106;2022-07-29T01:51:16;24.10;;;13.60;;
1010;SDS011;494;48.744;10.106;2022-07-29T01:53:50;19.90;;;13.17;;
1010;SDS011;494;48.744;10.106;2022-07-29T01:56:25;20.57;;;14.33;;
1010;SDS011;494;48.744;10.106;2022-07-29T01:59:00;20.00;;;13.60;;
1010;SDS011;494;48.744;10.106;2022-07-29T02:01:33;22.07;;;13.40;;
1010;SDS011;494;48.744;10.106;2022-07-29T02:04:05;19.30;;;13.30;;
1010;SDS011;494;48.744;10.106;2022-07-29T02:06:56;18.47;;;12.70;;
1010;SDS011;494;48.744;10.106;2022-07-29T02:09:31;20.70;;;13.67;;
1010;SDS011;494;48.744;10.106;2022-07-29T02:12:03;20.80;;;13.90;;
1010;SDS011;494;48.744;10.106;2022-07-29T02:14:37;20.70;;;13.50;;
1010;SDS011;494;48.744;10.106;2022-07-29T02:17:12;18.63;;;12.40;;
1010;SDS011;494;48.744;10.106;2022-07-29T02:19:45;19.10;;;12.70;;
1010;SDS011;494;48.744;10.106;2022-07-29T02:22:16;18.70;;;13.20;;
1010;SDS011;494;48.744;10.106;2022-07-29T02:24:47;18.10;;;13.17;;
1010;SDS011;494;48.744;10.106;2022-07-29T02:27:19;21.20;;;13.70;;
1010;SDS011;494;48.744;10.106;2022-07-29T02:29:51;19.63;;;13.63;;
1010;SDS011;494;48.744;10.106;2022-07-29T02:32:23;22.43;;;14.23;;
1010;SDS011;494;48.744;10.106;2022-07-29T02:34:54;19.90;;;13.00;;
1010;SDS011;494;48.744;10.106;2022-07-29T02:37:25;18.20;;;13.27;;
1010;SDS011;494;48.744;10.106;2022-07-29T02:39:56;19.40;;;13.40;;
1010;SDS011;494;48.744;10.106;2022-07-29T02:42:27;20.10;;;12.63;;
1010;SDS011;494;48.744;10.106;2022-07-29T02:44:58;17.20;;;11.50;;
1010;SDS011;494;48.744;10.106;2022-07-29T02:47:30;17.00;;;10.93;;
1010;SDS011;494;48.744;10.106;2022-07-29T02:50:08;18.80;;;12.00;;
1010;SDS011;494;48.744;10.106;2022-07-29T02:52:43;19.87;;;12.20;;
1010;SDS011;494;48.744;10.106;2022-07-29T02:55:23;17.93;;;11.73;;
1010;SDS011;494;48.744;10.106;2022-07-29T02:58:00;18.07;;;11.93;;
1010;SDS011;494;48.744;10.106;2022-07-29T03:00:34;16.83;;;11.77;;
1010;SDS011;494;48.744;10.106;2022-07-29T03:03:08;16.90;;;11.33;;
1010;SDS011;494;48.744;10.106;2022-07-29T03:05:42;18.10;;;11.83;;
1010;SDS011;494;48.744;10.106;2022-07-29T03:08:11;18.97;;;12.13;;
1010;SDS011;494;48.744;10.106;2022-07-29T03:10:43;23.83;;;13.60;;
1010;SDS011;494;48.744;10.106;2022-07-29T03:13:14;20.70;;;13.10;;
1010;SDS011;494;48.744;10.106;2022-07-29T03:15:43;19.13;;;11.77;;
1010;SDS011;494;48.744;10.106;2022-07-29T03:18:15;22.03;;;12.27;;
1010;SDS011;494;48.744;10.106;2022-07-29T03:20:44;19.03;;;12.07;;
1010;SDS011;494;48.744;10.106;2022-07-29T03:23:14;21.63;;;12.60;;
1010;SDS011;494;48.744;10.106;2022-07-29T03:25:47;18.60;;;12.47;;
1010;SDS011;494;48.744;10.106;2022-07-29T03:28:16;18.00;;;12.33;;
1010;SDS011;494;48.744;10.106;2022-07-29T03:30:47;18.87;;;12.57;;
1010;SDS011;494;48.744;10.106;2022-07-29T03:33:18;19.90;;;11.63;;
1010;SDS011;494;48.744;10.106;2022-07-29T03:35:47;17.53;;;11.33;;
1010;SDS011;494;48.744;10.106;2022-07-29T03:38:15;17.90;;;11.50;;
1010;SDS011;494;48.744;10.106;2022-07-29T03:40:46;17.53;;;11.70;;
1010;SDS011;494;48.744;10.106;2022-07-29T03:43:21;18.63;;;12.03;;
1010;SDS011;494;48.744;10.106;2022-07-29T03:45:53;20.23;;;12.33;;
1010;SDS011;494;48.744;10.106;2022-07-29T03:48:26;22.17;;;12.53;;
1010;SDS011;494;48.744;10.106;2022-07-29T03:51:00;18.87;;;12.07;;
1010;SDS011;494;48.744;10.106;2022-07-29T03:53:29;19.20;;;11.23;;
1010;SDS011;494;48.744;10.106;2022-07-29T03:56:01;18.60;;;11.50;;
1010;SDS011;494;48.744;10.106;2022-07-29T03:58:31;19.43;;;12.00;;
1010;SDS011;494;48.744;10.106;2022-07-29T04:01:01;21.77;;;13.13;;
1010;SDS011;494;48.744;10.106;2022-07-29T04:03:32;20.43;;;11.60;;
1010;SDS011;494;48.744;10.106;2022-07-29T04:06:03;17.10;;;10.50;;
1010;SDS011;494;48.744;10.106;2022-07-29T04:08:39;17.00;;;10.87;;
1010;SDS011;494;48.744;10.106;2022-07-29T04:11:08;15.97;;;10.07;;
1010;SDS011;494;48.744;10.106;2022-07-29T04:13:37;17.20;;;10.30;;
1010;SDS011;494;48.744;10.106;2022-07-29T04:16:06;18.87;;;10.17;;
1010;SDS011;494;48.744;10.106;2022-07-29T04:18:36;18.17;;;10.23;;
1010;SDS011;494;48.744;10.106;2022-07-29T04:21:04;18.03;;;10.67;;
1010;SDS011;494;48.744;10.106;2022-07-29T04:23:33;17.43;;;10.50;;
1010;SDS011;494;48.744;10.106;2022-07-29T04:26:18;18.20;;;11.10;;
1010;SDS011;494;48.744;10.106;2022-07-29T04:28:48;17.33;;;11.00;;
1010;SDS011;494;48.744;10.106;2022-07-29T04:31:16;24.10;;;11.87;;
1010;SDS011;494;48.744;10.106;2022-07-29T04:33:52;18.83;;;11.27;;
1010;SDS011;494;48.744;10.106;2022-07-29T04:36:20;20.13;;;11.90;;
1010;SDS011;494;48.744;10.106;2022-07-29T04:38:55;19.07;;;11.97;;
1010;SDS011;494;48.744;10.106;2022-07-29T04:41:23;30.80;;;13.67;;
1010;SDS011;494;48.744;10.106;2022-07-29T04:43:59;30.93;;;12.70;;
1010;SDS011;494;48.744;10.106;2022-07-29T04:46:32;29.53;;;13.37;;
1010;SDS011;494;48.744;10.106;2022-07-29T04:49:06;32.43;;;13.93;;
1010;SDS011;494;48.744;10.106;2022-07-29T04:51:35;21.13;;;12.73;;
1010;SDS011;494;48.744;10.106;2022-07-29T04:54:04;18.00;;;10.63;;
1010;SDS011;494;48.744;10.106;2022-07-29T04:56:32;18.33;;;10.83;;
1010;SDS011;494;48.744;10.106;2022-07-29T04:59:01;17.40;;;10.50;;
1010;SDS011;494;48.744;10.106;2022-07-29T05:01:30;17.07;;;10.40;;
1010;SDS011;494;48.744;10.106;2022-07-29T05:03:58;19.00;;;11.07;;
1010;SDS011;494;48.744;10.106;2022-07-29T05:06:28;18.97;;;12.23;;
1010;SDS011;494;48.744;10.106;2022-07-29T05:08:57;19.13;;;12.10;;
1010;SDS011;494;48.744;10.106;2022-07-29T05:11:25;22.50;;;13.73;;
1010;SDS011;494;48.744;10.106;2022-07-29T05:13:56;19.90;;;12.43;;
1010;SDS011;494;48.744;10.106;2022-07-29T05:16:24;18.23;;;10.43;;
1010;SDS011;494;48.744;10.106;2022-07-29T05:18:53;19.37;;;10.90;;
1010;SDS011;494;48.744;10.106;2022-07-29T05:21:21;19.20;;;10.60;;
1010;SDS011;494;48.744;10.106;2022-07-29T05:23:51;18.53;;;12.00;;
1010;SDS011;494;48.744;10.106;2022-07-29T05:26:20;24.23;;;15.83;;
1010;SDS011;494;48.744;10.106;2022-07-29T05:28:48;28.67;;;18.10;;
1010;SDS011;494;48.744;10.106;2022-07-29T05:31:17;27.80;;;18.23;;
1010;SDS011;494;48.744;10.106;2022-07-29T05:33:45;28.57;;;17.73;;
1010;SDS011;494;48.744;10.106;2022-07-29T05:36:14;28.07;;;17.03;;
1010;SDS011;494;48.744;10.106;2022-07-29T05:38:42;27.00;;;14.87;;
1010;SDS011;494;48.744;10.106;2022-07-29T05:41:15;25.43;;;15.10;;
1010;SDS011;494;48.744;10.106;2022-07-29T05:43:44;30.50;;;15.37;;
1010;SDS011;494;48.744;10.106;2022-07-29T05:46:13;27.27;;;15.53;;
1010;SDS011;494;48.744;10.106;2022-07-29T05:48:41;26.47;;;15.60;;
1010;SDS011;494;48.744;10.106;2022-07-29T05:51:10;29.70;;;17.20;;
1010;SDS011;494;48.744;10.106;2022-07-29T05:53:38;30.37;;;15.90;;
1010;SDS011;494;48.744;10.106;2022-07-29T05:56:07;29.90;;;15.10;;
1010;SDS011;494;48.744;10.106;2022-07-29T05:58:36;28.50;;;14.83;;
1010;SDS011;494;48.744;10.106;2022-07-29T06:01:05;26.20;;;15.07;;
1010;SDS011;494;48.744;10.106;2022-07-29T06:03:34;25.27;;;14.83;;
1010;SDS011;494;48.744;10.106;2022-07-29T06:06:04;27.43;;;14.93;;
1010;SDS011;494;48.744;10.106;2022-07-29T06:08:33;27.70;;;14.30;;
1010;SDS011;494;48.744;10.106;2022-07-29T06:11:03;27.87;;;14.33;;
1010;SDS011;494;48.744;10.106;2022-07-29T06:13:32;29.83;;;13.97;;
1010;SDS011;494;48.744;10.106;2022-07-29T06:16:02;30.00;;;14.40;;
1010;SDS011;494;48.744;10.106;2022-07-29T06:18:31;32.97;;;16.07;;
1010;SDS011;494;48.744;10.106;2022-07-29T06:21:00;31.57;;;17.17;;
1010;SDS011;494;48.744;10.106;2022-07-29T06:23:28;35.50;;;19.03;;
1010;SDS011;494;48.744;10.106;2022-07-29T06:25:57;33.00;;;18.67;;
1010;SDS011;494;48.744;10.106;2022-07-29T06:28:26;42.07;;;20.70;;
1010;SDS011;494;48.744;10.106;2022-07-29T06:30:55;35.30;;;19.07;;
1010;SDS011;494;48.744;10.106;2022-07-29T06:33:24;40.17;;;21.47;;
1010;SDS011;494;48.744;10.106;2022-07-29T06:35:53;33.43;;;19.83;;
1010;SDS011;494;48.744;10.106;2022-07-29T06:38:22;26.50;;;15.70;;
1010;SDS011;494;48.744;10.106;2022-07-29T06:40:59;26.17;;;15.10;;
1010;SDS011;494;48.744;10.106;2022-07-29T06:43:30;23.93;;;15.67;;
1010;SDS011;494;48.744;10.106;2022-07-29T06:46:18;28.07;;;16.97;;
1010;SDS011;494;48.744;10.106;2022-07-29T06:48:49;23.80;;;15.40;;
1010;SDS011;494;48.744;10.106;2022-07-29T06:51:19;27.50;;;16.77;;
1010;SDS011;494;48.744;10.106;2022-07-29T06:53:50;24.13;;;16.80;;
1010;SDS011;494;48.744;10.106;2022-07-29T06:56:28;28.43;;;18.00;;
1010;SDS011;494;48.744;10.106;2022-07-29T06:59:05;25.33;;;17.23;;
1010;SDS011;494;48.744;10.106;2022-07-29T07:01:35;23.97;;;17.10;;
1010;SDS011;494;48.744;10.106;2022-07-29T07:04:06;24.27;;;17.30;;
1010;SDS011;494;48.744;10.106;2022-07-29T07:06:36;26.97;;;18.77;;
1010;SDS011;494;48.744;10.106;2022-07-29T07:09:05;30.20;;;18.07;;
1010;SDS011;494;48.744;10.106;2022-07-29T07:11:34;26.80;;;18.57;;
1010;SDS011;494;48.744;10.106;2022-07-29T07:14:03;24.20;;;16.77;;
1010;SDS011;494;48.744;10.106;2022-07-29T07:16:31;29.47;;;19.83;;
1010;SDS011;494;48.744;10.106;2022-07-29T07:19:01;27.80;;;19.73;;
1010;SDS011;494;48.744;10.106;2022-07-29T07:21:31;29.30;;;20.03;;
1010;SDS011;494;48.744;10.106;2022-07-29T07:24:01;28.90;;;19.97;;
1010;SDS011;494;48.744;10.106;2022-07-29T07:26:30;31.90;;;19.80;;
1010;SDS011;494;48.744;10.106;2022-07-29T07:28:59;27.60;;;18.97;;
1010;SDS011;494;48.744;10.106;2022-07-29T07:31:28;30.77;;;19.37;;
1010;SDS011;494;48.744;10.106;2022-07-29T07:33:56;30.20;;;19.30;;
1010;SDS011;494;48.744;10.106;2022-07-29T07:36:26;30.33;;;20.03;;
1010;SDS011;494;48.744;10.106;2022-07-29T07:38:57;33.50;;;21.10;;
1010;SDS011;494;48.744;10.106;2022-07-29T07:41:25;30.80;;;19.53;;
1010;SDS011;494;48.744;10.106;2022-07-29T07:43:58;31.50;;;19.23;;
1010;SDS011;494;48.744;10.106;2022-07-29T07:46:28;31.97;;;20.47;;
1010;SDS011;494;48.744;10.106;2022-07-29T07:48:57;29.87;;;20.30;;
1010;SDS011;494;48.744;10.106;2022-07-29T07:51:25;34.77;;;22.37;;
1010;SDS011;494;48.744;10.106;2022-07-29T07:53:54;32.53;;;21.90;;
1010;SDS011;494;48.744;10.106;2022-07-29T07:56:24;34.20;;;22.90;;
1010;SDS011;494;48.744;10.106;2022-07-29T07:59:00;36.87;;;25.50;;
1010;SDS011;494;48.744;10.106;2022-07-29T08:01:29;35.67;;;25.00;;
1010;SDS011;494;48.744;10.106;2022-07-29T08:04:17;33.27;;;24.37;;
1010;SDS011;494;48.744;10.106;2022-07-29T08:06:53;33.70;;;22.73;;
1010;SDS011;494;48.744;10.106;2022-07-29T08:09:24;30.17;;;21.23;;
1010;SDS011;494;48.744;10.106;2022-07-29T08:11:56;29.93;;;21.80;;
1010;SDS011;494;48.744;10.106;2022-07-29T08:14:25;32.93;;;27.13;;
1010;SDS011;494;48.744;10.106;2022-07-29T08:16:54;33.50;;;28.83;;
1010;SDS011;494;48.744;10.106;2022-07-29T08:19:23;35.13;;;30.20;;
1010;SDS011;494;48.744;10.106;2022-07-29T08:21:52;33.07;;;27.93;;
1010;SDS011;494;48.744;10.106;2022-07-29T08:24:21;32.30;;;26.70;;
1010;SDS011;494;48.744;10.106;2022-07-29T08:27:09;31.60;;;23.17;;
1010;SDS011;494;48.744;10.106;2022-07-29T08:29:58;28.53;;;21.37;;
1010;SDS011;494;48.744;10.106;2022-07-29T08:32:27;26.30;;;19.87;;
1010;SDS011;494;48.744;10.106;2022-07-29T08:35:16;26.20;;;18.93;;
1010;SDS011;494;48.744;10.106;2022-07-29T08:37:44;25.50;;;18.10;;
1010;SDS011;494;48.744;10.106;2022-07-29T08:40:15;28.07;;;20.10;;
1010;SDS011;494;48.744;10.106;2022-07-29T08:42:44;26.77;;;18.47;;
1010;SDS011;494;48.744;10.106;2022-07-29T08:45:21;25.90;;;18.50;;
1010;SDS011;494;48.744;10.106;2022-07-29T08:47:53;26.63;;;17.90;;
1010;SDS011;494;48.744;10.106;2022-07-29T08:50:23;25.40;;;18.10;;
1010;SDS011;494;48.744;10.106;2022-07-29T08:52:52;26.27;;;18.00;;
1010;SDS011;494;48.744;10.106;2022-07-29T08:55:27;24.27;;;17.50;;
1010;SDS011;494;48.744;10.106;2022-07-29T08:57:58;29.67;;;18.37;;
1010;SDS011;494;48.744;10.106;2022-07-29T09:00:30;26.70;;;20.57;;
1010;SDS011;494;48.744;10.106;2022-07-29T09:02:59;27.63;;;21.47;;
1010;SDS011;494;48.744;10.106;2022-07-29T09:05:29;22.80;;;16.40;;
1010;SDS011;494;48.744;10.106;2022-07-29T09:08:05;23.73;;;15.50;;
1010;SDS011;494;48.744;10.106;2022-07-29T09:10:36;20.73;;;14.83;;
1010;SDS011;494;48.744;10.106;2022-07-29T09:13:05;23.47;;;14.10;;
1010;SDS011;494;48.744;10.106;2022-07-29T09:15:35;21.20;;;14.10;;
1010;SDS011;494;48.744;10.106;2022-07-29T09:18:03;22.93;;;14.40;;
1010;SDS011;494;48.744;10.106;2022-07-29T09:20:32;21.97;;;13.53;;
1010;SDS011;494;48.744;10.106;2022-07-29T09:23:14;21.47;;;14.10;;
1010;SDS011;494;48.744;10.106;2022-07-29T09:25:51;22.47;;;13.40;;
1010;SDS011;494;48.744;10.106;2022-07-29T09:28:19;22.10;;;15.60;;
1010;SDS011;494;48.744;10.106;2022-07-29T09:30:51;19.97;;;12.40;;
1010;SDS011;494;48.744;10.106;2022-07-29T09:33:21;20.53;;;12.50;;
1010;SDS011;494;48.744;10.106;2022-07-29T09:36:03;21.63;;;16.20;;
1010;SDS011;494;48.744;10.106;2022-07-29T09:38:34;21.70;;;13.00;;
1010;SDS011;494;48.744;10.106;2022-07-29T09:41:05;19.27;;;13.33;;
1010;SDS011;494;48.744;10.106;2022-07-29T09:43:36;18.90;;;11.77;;
1010;SDS011;494;48.744;10.106;2022-07-29T09:46:10;20.87;;;16.17;;
1010;SDS011;494;48.744;10.106;2022-07-29T09:48:40;20.70;;;16.90;;
1010;SDS011;494;48.744;10.106;2022-07-29T09:51:16;21.00;;;17.20;;
1010;SDS011;494;48.744;10.106;2022-07-29T09:53:52;25.23;;;17.63;;
1010;SDS011;494;48.744;10.106;2022-07-29T09:56:24;20.70;;;15.80;;
1010;SDS011;494;48.744;10.106;2022-07-29T09:59:06;21.77;;;17.70;;
1010;SDS011;494;48.744;10.106;2022-07-29T10:01:37;19.03;;;11.87;;
1010;SDS011;494;48.744;10.106;2022-07-29T10:04:06;19.53;;;12.33;;
1010;SDS011;494;48.744;10.106;2022-07-29T10:06:34;20.50;;;12.67;;
1010;SDS011;494;48.744;10.106;2022-07-29T10:09:30;20.63;;;11.97;;
1010;SDS011;494;48.744;10.106;2022-07-29T10:12:05;19.20;;;12.40;;
1010;SDS011;494;48.744;10.106;2022-07-29T10:14:41;21.53;;;13.43;;
1010;SDS011;494;48.744;10.106;2022-07-29T10:17:10;20.23;;;12.00;;
1010;SDS011;494;48.744;10.106;2022-07-29T10:19:39;20.00;;;12.63;;
1010;SDS011;494;48.744;10.106;2022-07-29T10:22:09;19.50;;;12.57;;
1010;SDS011;494;48.744;10.106;2022-07-29T10:24:40;21.53;;;15.80;;
1010;SDS011;494;48.744;10.106;2022-07-29T10:27:10;21.33;;;18.93;;
1010;SDS011;494;48.744;10.106;2022-07-29T10:29:39;19.70;;;14.33;;
1010;SDS011;494;48.744;10.106;2022-07-29T10:32:13;20.03;;;14.00;;
1010;SDS011;494;48.744;10.106;2022-07-29T10:35:06;22.40;;;14.23;;
1010;SDS011;494;48.744;10.106;2022-07-29T10:38:14;22.30;;;14.60;;
1010;SDS011;494;48.744;10.106;2022-07-29T10:44:23;20.00;;;13.63;;
1010;SDS011;494;48.744;10.106;2022-07-29T10:46:53;20.87;;;13.70;;
1010;SDS011;494;48.744;10.106;2022-07-29T10:49:24;22.07;;;12.90;;
1010;SDS011;494;48.744;10.106;2022-07-29T10:51:57;21.13;;;13.63;;
1010;SDS011;494;48.744;10.106;2022-07-29T10:54:45;19.07;;;14.60;;
1010;SDS011;494;48.744;10.106;2022-07-29T10:57:19;19.87;;;13.50;;
1010;SDS011;494;48.744;10.106;2022-07-29T11:00:34;21.10;;;13.43;;
1010;SDS011;494;48.744;10.106;2022-07-29T11:03:05;22.10;;;14.17;;
1010;SDS011;494;48.744;10.106;2022-07-29T11:05:52;21.73;;;12.93;;
1010;SDS011;494;48.744;10.106;2022-07-29T11:08:25;19.97;;;11.40;;
1010;SDS011;494;48.744;10.106;2022-07-29T11:14:17;18.23;;;11.70;;
1010;SDS011;494;48.744;10.106;2022-07-29T11:17:00;22.10;;;13.73;;
1010;SDS011;494;48.744;10.106;2022-07-29T11:19:51;21.13;;;13.80;;
1010;SDS011;494;48.744;10.106;2022-07-29T11:22:59;22.40;;;16.10;;
1010;SDS011;494;48.744;10.106;2022-07-29T11:25:28;22.57;;;15.33;;
1010;SDS011;494;48.744;10.106;2022-07-29T11:28:18;20.27;;;13.90;;
1010;SDS011;494;48.744;10.106;2022-07-29T11:30:51;18.77;;;12.07;;
1010;SDS011;494;48.744;10.106;2022-07-29T11:33:28;16.20;;;9.90;;
1010;SDS011;494;48.744;10.106;2022-07-29T11:36:17;17.13;;;9.50;;
1010;SDS011;494;48.744;10.106;2022-07-29T11:39:05;16.20;;;9.53;;
1010;SDS011;494;48.744;10.106;2022-07-29T11:45:10;15.97;;;9.03;;
1010;SDS011;494;48.744;10.106;2022-07-29T11:48:04;16.57;;;8.80;;
1010;SDS011;494;48.744;10.106;2022-07-29T11:50:55;15.80;;;8.80;;
1010;SDS011;494;48.744;10.106;2022-07-29T11:53:25;15.87;;;8.77;;
1010;SDS011;494;48.744;10.106;2022-07-29T11:55:59;16.07;;;8.20;;
1010;SDS011;494;48.744;10.106;2022-07-29T11:58:29;14.50;;;8.03;;
1010;SDS011;494;48.744;10.106;2022-07-29T12:00:58;15.70;;;8.80;;
1010;SDS011;494;48.744;10.106;2022-07-29T12:03:30;16.80;;;7.67;;
1010;SDS011;494;48.744;10.106;2022-07-29T12:06:03;17.50;;;8.50;;
1010;SDS011;494;48.744;10.106;2022-07-29T12:08:46;15.57;;;9.20;;
1010;SDS011;494;48.744;10.106;2022-07-29T12:11:15;14.90;;;8.10;;
1010;SDS011;494;48.744;10.106;2022-07-29T12:13:46;16.37;;;7.83;;
1010;SDS011;494;48.744;10.106;2022-07-29T12:16:15;14.00;;;6.03;;
1010;SDS011;494;48.744;10.106;2022-07-29T12:18:55;13.73;;;6.90;;
1010;SDS011;494;48.744;10.106;2022-07-29T12:21:33;14.23;;;6.20;;
1010;SDS011;494;48.744;10.106;2022-07-29T12:24:22;16.67;;;6.20;;
1010;SDS011;494;48.744;10.106;2022-07-29T12:26:53;13.93;;;5.90;;
1010;SDS011;494;48.744;10.106;2022-07-29T12:29:23;14.20;;;6.53;;
1010;SDS011;494;48.744;10.106;2022-07-29T12:32:01;14.50;;;5.93;;
1010;SDS011;494;48.744;10.106;2022-07-29T12:34:45;13.03;;;6.07;;
1010;SDS011;494;48.744;10.106;2022-07-29T12:37:15;15.40;;;7.50;;
1010;SDS011;494;48.744;10.106;2022-07-29T12:39:45;12.97;;;5.47;;
1010;SDS011;494;48.744;10.106;2022-07-29T12:42:14;14.03;;;5.93;;
1010;SDS011;494;48.744;10.106;2022-07-29T12:44:45;16.00;;;9.37;;
1010;SDS011;494;48.744;10.106;2022-07-29T12:47:15;16.50;;;9.80;;
1010;SDS011;494;48.744;10.106;2022-07-29T12:49:45;15.00;;;9.83;;
1010;SDS011;494;48.744;10.106;2022-07-29T12:52:25;15.27;;;9.70;;
1010;SDS011;494;48.744;10.106;2022-07-29T12:54:55;15.97;;;10.60;;
1010;SDS011;494;48.744;10.106;2022-07-29T12:57:24;16.10;;;9.20;;
1010;SDS011;494;48.744;10.106;2022-07-29T13:00:00;16.93;;;8.10;;
1010;SDS011;494;48.744;10.106;2022-07-29T13:02:36;16.20;;;8.10;;
1010;SDS011;494;48.744;10.106;2022-07-29T13:05:08;15.20;;;7.47;;
1010;SDS011;494;48.744;10.106;2022-07-29T13:07:40;16.57;;;8.23;;
1010;SDS011;494;48.744;10.106;2022-07-29T13:10:22;14.30;;;7.10;;
1010;SDS011;494;48.744;10.106;2022-07-29T13:13:01;15.73;;;7.97;;
1010;SDS011;494;48.744;10.106;2022-07-29T13:15:32;15.90;;;7.20;;
1010;SDS011;494;48.744;10.106;2022-07-29T13:18:02;14.40;;;8.17;;
1010;SDS011;494;48.744;10.106;2022-07-29T13:20:32;15.07;;;8.57;;
1010;SDS011;494;48.744;10.106;2022-07-29T13:23:02;16.97;;;9.30;;
1010;SDS011;494;48.744;10.106;2022-07-29T13:25:31;18.37;;;9.10;;
1010;SDS011;494;48.744;10.106;2022-07-29T13:28:00;17.77;;;9.40;;
1010;SDS011;494;48.744;10.106;2022-07-29T13:30:29;17.40;;;9.13;;
1010;SDS011;494;48.744;10.106;2022-07-29T13:32:57;17.63;;;8.97;;
1010;SDS011;494;48.744;10.106;2022-07-29T13:35:26;16.73;;;9.17;;
1010;SDS011;494;48.744;10.106;2022-07-29T13:37:56;16.67;;;9.00;;
1010;SDS011;494;48.744;10.106;2022-07-29T13:40:25;16.90;;;9.57;;
1010;SDS011;494;48.744;10.106;2022-07-29T13:42:55;17.77;;;10.17;;
1010;SDS011;494;48.744;10.106;2022-07-29T13:45:24;17.67;;;9.87;;
